Nearby METAR Reports

 

YMER - Merimbula Arpt, Australia
Distance from station: SE 12km
Updated: 28/05/2022 07:34
NOT Current
Partly cloudy
Partly cloudy
 Wind from calm
Wind: Calm
Temperature: 11°C
Dew Point: 11°C
Humidity: 100%
Barometer: 1013 hPa
Clouds: Partly cloudy
Visibility: 10 km
Cloud details: Partly cloudy 3810 m
2022/05/27 21:34 YMER 272134Z AUTO 00000KT 9999 // SCT125 11/11 Q1013
YCOM - Cooma Snowy Mtns, Australia
Distance from station: NW 96km
Updated: 29/05/2022 11:00
NOT Current
Partly cloudy
Partly cloudy
 Wind from WSW
Wind: WSW 11 km/h
Temperature: 7°C
Wind Chill: 5°C
Dew Point: 4°C
Humidity: 81%
Barometer: 1008 hPa
Clouds: Partly cloudy
Visibility: 10 km
Cloud details: Partly cloudy 396 m
2022/05/29 01:00 YCOM 290100Z AUTO 24006KT 9999 // SCT013 07/04 Q1008
 
YSCB - Canberra (civ/Mi, Australia
Distance from station: NNW 182km
Updated: 29/05/2022 22:00
Clear
Clear
 Wind from NE
Wind: NE 4 km/h
Temperature: 4°C
Dew Point: 2°C
Humidity: 87%
Barometer: 1005 hPa
Clouds: Clear
Visibility: 10 km
2022/05/29 12:00 YSCB 291200Z AUTO 04002KT 9999 // NCD 04/02 Q1005
YSNW - Nowra (aus-Navy), Australia
Distance from station: NNE 219km
Updated: 28/05/2022 16:31
NOT Current
Thunderstorm rain, Mostly cloudy
Thunderstorm rain, Mostly cloudy
 Wind from WSW
Wind: WSW 19 km/h
Temperature: 13°C
Dew Point: 12°C
Humidity: 94%
Barometer: 1009 hPa
Summary: Thunderstorm Rain
Clouds: Mostly cloudy
Visibility: 10 km
Cloud details: Partly cloudy 945 m
Partly cloudy 1219 m
Mostly cloudy 1768 m
2022/05/28 06:31 YSNW 280631Z AUTO 25010KT 9999 TSRA SCT031 SCT040 BKN058 13/12 Q1009
 
YMAY - Albury Airport, Australia
Distance from station: WNW 271km
Updated: 29/05/2022 18:30
NOT Current
Mostly cloudy
Mostly cloudy
 Wind from NNW
Wind: NNW 7 km/h
Temperature: 9°C
Wind Chill: 8°C
Dew Point: 7°C
Humidity: 87%
Barometer: 1007 hPa
Clouds: Mostly cloudy
Visibility: 0 km
Cloud details: Partly cloudy 1097 m
Mostly cloudy 1433 m
2022/05/29 08:30 YMAY 290830Z AUTO 34004KT 0300 // SCT036 BKN047 09/07 Q1007
YSWG - Wagga Wagga(Cv/M, Australia
Distance from station: NW 283km
Updated: 29/05/2022 09:31
NOT Current
Partly cloudy
Partly cloudy
 Wind from NE
Wind: NE 6 km/h
Temperature: 7°C
Dew Point: 7°C
Humidity: 100%
Barometer: 1012 hPa
Clouds: Partly cloudy
Visibility: 10 km
Cloud details: Partly cloudy 61 m
Partly cloudy 1189 m
2022/05/28 23:31 YSWG 282331Z AUTO 04003KT 9999 // SCT002 SCT039 07/07 Q1012
 
YWGT - Wangaratta Arp, Australia
Distance from station: W 317km
Updated: 29/05/2022 12:52
NOT Current
Partly cloudy
Partly cloudy
 Wind from N
Wind: N 7 km/h
Temperature: 10°C
Wind Chill: 9°C
Dew Point: 8°C
Humidity: 88%
Barometer: 1009 hPa
Clouds: Partly cloudy
Visibility: 10 km
Cloud details: Partly cloudy 183 m
2022/05/29 02:52 YWGT 290252Z AUTO 36004KT 9999 // SCT006 10/08 Q1009
YSSY - Sydney Intl Airp, Australia
Distance from station: NNE 343km
Updated: 29/05/2022 22:00
Clear
Clear
 Wind from W
Wind: W 20 km/h, Gust: 41 km/h
Temperature: 11°C
Dew Point: 5°C
Humidity: 67%
Barometer: 1005 hPa
Summary: Clear
Visibility: greater than 10 km
2022/05/29 12:00 YSSY 291200Z 28011G22KT CAVOK 11/05 Q1005